createdAt,value
2023-03-11T00:00:41.441Z,0.00
2023-03-11T00:01:41.462Z,0.00
2023-03-11T00:02:41.404Z,0.00
2023-03-11T00:03:41.402Z,0.00
2023-03-11T00:04:41.393Z,0.00
2023-03-11T00:05:41.501Z,0.00
2023-03-11T00:06:41.368Z,0.00
2023-03-11T00:07:41.353Z,0.00
2023-03-11T00:08:41.363Z,0.00
2023-03-11T00:09:41.347Z,0.00
2023-03-11T00:10:41.342Z,0.00
2023-03-11T00:11:41.320Z,0.00
2023-03-11T00:12:41.309Z,0.00
2023-03-11T00:13:41.311Z,0.00
2023-03-11T00:14:41.301Z,0.00
2023-03-11T00:15:41.288Z,0.00
2023-03-11T00:16:41.340Z,0.00
2023-03-11T00:17:41.261Z,0.00
2023-03-11T00:18:41.253Z,0.00
2023-03-11T00:19:41.239Z,0.00
2023-03-11T00:20:41.246Z,0.00
2023-03-11T00:21:41.218Z,0.00
2023-03-11T00:22:41.211Z,0.00
2023-03-11T00:23:41.201Z,0.00
2023-03-11T00:24:41.193Z,0.00
2023-03-11T00:25:41.201Z,0.00
2023-03-11T00:26:41.174Z,0.00
2023-03-11T00:27:41.156Z,0.00
2023-03-11T00:28:41.179Z,0.00
2023-03-11T00:29:41.137Z,0.00
2023-03-11T00:30:41.186Z,0.00
2023-03-11T00:31:41.118Z,0.00
2023-03-11T00:32:41.171Z,0.00
2023-03-11T00:33:41.108Z,0.00
2023-03-11T00:34:41.096Z,0.00
2023-03-11T00:35:41.205Z,0.00
2023-03-11T00:36:41.077Z,0.00
2023-03-11T00:37:41.062Z,0.00
2023-03-11T00:38:41.135Z,0.00
2023-03-11T00:39:41.042Z,0.00
2023-03-11T00:40:41.057Z,0.00
2023-03-11T00:41:41.030Z,0.00
2023-03-11T00:42:41.014Z,0.00
2023-03-11T00:43:41.003Z,0.00
2023-03-11T00:44:41.004Z,0.00
2023-03-11T00:45:41.008Z,0.00
2023-03-11T00:46:40.982Z,0.00
2023-03-11T00:47:40.964Z,0.00
2023-03-11T00:48:40.959Z,0.00
2023-03-11T00:49:40.942Z,0.00
2023-03-11T00:50:40.953Z,0.00
2023-03-11T00:51:40.925Z,0.00
2023-03-11T00:52:40.920Z,0.00
2023-03-11T00:53:40.908Z,0.00
2023-03-11T00:54:40.900Z,0.00
2023-03-11T00:55:40.908Z,0.00
2023-03-11T00:56:40.888Z,0.00
2023-03-11T00:57:40.864Z,0.00
2023-03-11T00:58:40.862Z,0.00
2023-03-11T00:59:40.849Z,0.00
2023-03-11T01:00:40.862Z,0.00
2023-03-11T01:01:40.892Z,0.00
2023-03-11T01:02:40.817Z,0.00
2023-03-11T01:03:40.807Z,0.00
2023-03-11T01:04:40.885Z,0.00
2023-03-11T01:05:40.809Z,0.00
2023-03-11T01:06:45.610Z,0.00
2023-03-11T01:07:40.775Z,0.00
2023-03-11T01:08:40.773Z,0.00
2023-03-11T01:09:40.753Z,0.00
2023-03-11T01:10:40.747Z,0.00
2023-03-11T01:11:40.732Z,0.00
2023-03-11T01:12:40.721Z,0.00
2023-03-11T01:13:40.738Z,0.00
2023-03-11T01:14:40.700Z,0.00
2023-03-11T01:15:40.706Z,0.00
2023-03-11T01:16:40.684Z,0.00
2023-03-11T01:17:40.670Z,0.00
2023-03-11T01:18:40.662Z,0.00
2023-03-11T01:19:40.673Z,0.00
2023-03-11T01:20:40.651Z,0.00
2023-03-11T01:21:40.626Z,0.00
2023-03-11T01:22:40.618Z,0.00
2023-03-11T01:23:40.607Z,0.00
2023-03-11T01:24:40.618Z,0.00
2023-03-11T01:25:40.611Z,0.00
2023-03-11T01:26:40.583Z,0.00
2023-03-11T01:27:40.566Z,0.00
2023-03-11T01:28:40.565Z,0.00
2023-03-11T01:29:40.558Z,0.00
2023-03-11T01:30:40.564Z,0.00
2023-03-11T01:31:40.526Z,0.00
2023-03-11T01:32:40.578Z,0.00
2023-03-11T01:33:40.510Z,0.00
2023-03-11T01:34:40.511Z,0.00
2023-03-11T01:35:40.557Z,0.00
2023-03-11T01:36:40.480Z,0.00
2023-03-11T01:37:40.469Z,0.00
2023-03-11T01:38:40.468Z,0.00
2023-03-11T01:39:40.454Z,0.00
2023-03-11T01:40:40.476Z,0.00
2023-03-11T01:41:40.431Z,0.00
2023-03-11T01:42:40.427Z,0.00
2023-03-11T01:43:40.413Z,0.00
2023-03-11T01:44:40.414Z,0.00
2023-03-11T01:45:40.397Z,0.00
2023-03-11T01:46:40.449Z,0.00
2023-03-11T01:47:40.374Z,0.00
2023-03-11T01:48:40.360Z,0.00
2023-03-11T01:49:40.366Z,0.00
2023-03-11T01:50:40.383Z,0.00
2023-03-11T01:51:40.326Z,0.00
2023-03-11T01:52:40.329Z,0.00
2023-03-11T01:53:40.307Z,0.00
2023-03-11T01:54:40.324Z,0.00
2023-03-11T01:55:40.322Z,0.00
2023-03-11T01:56:40.308Z,0.00
2023-03-11T01:57:40.270Z,0.00
2023-03-11T01:58:40.260Z,0.00
2023-03-11T01:59:40.248Z,0.00
2023-03-11T02:00:40.281Z,0.00
2023-03-11T02:01:40.336Z,0.00
2023-03-11T02:02:40.258Z,0.00
2023-03-11T02:03:40.211Z,0.00
2023-03-11T02:04:40.201Z,0.00
2023-03-11T02:05:40.226Z,0.00
2023-03-11T02:06:40.194Z,0.00
2023-03-11T02:07:40.168Z,0.00
2023-03-11T02:08:40.163Z,0.00
2023-03-11T02:09:40.159Z,0.00
2023-03-11T02:10:40.147Z,0.00
2023-03-11T02:11:40.145Z,0.00
2023-03-11T02:12:40.126Z,0.00
2023-03-11T02:13:40.119Z,0.00
2023-03-11T02:14:40.106Z,0.00
2023-03-11T02:15:40.294Z,0.00
2023-03-11T02:16:40.103Z,0.00
2023-03-11T02:17:40.073Z,0.00
2023-03-11T02:18:40.071Z,0.00
2023-03-11T02:19:40.066Z,0.00
2023-03-11T02:20:40.049Z,0.00
2023-03-11T02:21:40.073Z,0.00
2023-03-11T02:22:40.040Z,0.00
2023-03-11T02:23:40.036Z,0.00
2023-03-11T02:24:40.039Z,0.00
2023-03-11T02:25:39.998Z,0.00
2023-03-11T02:26:40.027Z,0.00
2023-03-11T02:27:39.979Z,0.00
2023-03-11T02:28:39.985Z,0.00
2023-03-11T02:29:39.961Z,0.00
2023-03-11T02:30:39.958Z,0.00
2023-03-11T02:31:42.546Z,0.00
2023-03-11T02:32:39.953Z,0.00
2023-03-11T02:33:39.925Z,0.00
2023-03-11T02:34:39.915Z,0.00
2023-03-11T02:35:39.927Z,0.00
2023-03-11T02:36:39.914Z,0.00
2023-03-11T02:37:39.885Z,0.00
2023-03-11T02:38:39.881Z,0.00
2023-03-11T02:39:39.863Z,0.00
2023-03-11T02:40:39.859Z,0.00
2023-03-11T02:41:39.867Z,0.00
2023-03-11T02:42:39.839Z,0.00
2023-03-11T02:43:39.824Z,0.00
2023-03-11T02:44:39.814Z,0.00
2023-03-11T02:45:39.806Z,0.00
2023-03-11T02:46:39.834Z,0.00
2023-03-11T02:47:39.781Z,0.00
2023-03-11T02:48:39.774Z,0.00
2023-03-11T02:49:39.752Z,0.00
2023-03-11T02:50:39.752Z,0.00
2023-03-11T02:51:39.772Z,0.00
2023-03-11T02:52:39.734Z,0.00
2023-03-11T02:53:39.717Z,0.00
2023-03-11T02:54:39.712Z,0.00
2023-03-11T02:55:39.699Z,0.00
2023-03-11T02:56:39.719Z,0.00
2023-03-11T02:57:39.680Z,0.00
2023-03-11T02:58:39.680Z,0.00
2023-03-11T02:59:39.668Z,0.00
2023-03-11T03:00:39.668Z,0.00
2023-03-11T03:01:39.657Z,0.00
2023-03-11T03:02:39.631Z,0.00
2023-03-11T03:03:39.615Z,0.00
2023-03-11T03:04:39.612Z,0.00
2023-03-11T03:05:39.598Z,0.00
2023-03-11T03:06:39.616Z,0.00
2023-03-11T03:07:39.672Z,0.00
2023-03-11T03:08:39.577Z,0.00
2023-03-11T03:09:39.568Z,0.00
2023-03-11T03:10:39.569Z,0.00
2023-03-11T03:11:39.543Z,0.00
2023-03-11T03:12:39.534Z,0.00
2023-03-11T03:13:39.526Z,0.00
2023-03-11T03:14:39.517Z,0.00
2023-03-11T03:15:39.514Z,0.00
2023-03-11T03:16:39.629Z,0.00
2023-03-11T03:17:39.574Z,0.00
2023-03-11T03:18:39.474Z,0.00
2023-03-11T03:19:39.469Z,0.00
2023-03-11T03:20:39.447Z,0.00
2023-03-11T03:21:39.497Z,0.00
2023-03-11T03:22:39.430Z,0.00
2023-03-11T03:23:39.424Z,0.00
2023-03-11T03:24:39.412Z,0.00
2023-03-11T03:25:39.419Z,0.00
2023-03-11T03:26:39.415Z,0.00
2023-03-11T03:27:39.393Z,0.00
2023-03-11T03:28:39.390Z,0.00
2023-03-11T03:29:39.371Z,0.00
2023-03-11T03:30:39.359Z,0.00
2023-03-11T03:31:39.417Z,0.00
2023-03-11T03:32:39.413Z,0.00
2023-03-11T03:33:39.329Z,0.00
2023-03-11T03:34:39.314Z,0.00
2023-03-11T03:35:39.326Z,0.00
2023-03-11T03:36:39.318Z,0.00
2023-03-11T03:37:39.293Z,0.00
2023-03-11T03:38:39.275Z,0.00
2023-03-11T03:39:39.272Z,0.00
2023-03-11T03:40:39.270Z,0.00
2023-03-11T03:41:39.282Z,0.00
2023-03-11T03:42:39.252Z,0.00
2023-03-11T03:43:39.234Z,0.00
2023-03-11T03:44:39.216Z,0.00
2023-03-11T03:45:39.260Z,0.00
2023-03-11T03:46:39.219Z,0.00
2023-03-11T03:47:39.196Z,0.00
2023-03-11T03:48:39.179Z,0.00
2023-03-11T03:49:39.177Z,0.00
2023-03-11T03:50:39.180Z,0.00
2023-03-11T03:51:39.171Z,0.00
2023-03-11T03:52:39.146Z,0.00
2023-03-11T03:53:39.139Z,0.00
2023-03-11T03:54:39.127Z,0.00
2023-03-11T03:55:39.119Z,0.00
2023-03-11T03:56:39.121Z,0.00
2023-03-11T03:57:39.101Z,0.00
2023-03-11T03:58:39.094Z,0.00
2023-03-11T03:59:39.083Z,0.00
2023-03-11T04:00:39.068Z,0.00
2023-03-11T04:01:39.096Z,0.00
2023-03-11T04:02:39.112Z,0.00
2023-03-11T04:03:39.164Z,0.00
2023-03-11T04:04:39.029Z,0.00
2023-03-11T04:05:39.036Z,0.00
2023-03-11T04:06:39.028Z,0.00
2023-03-11T04:07:39.011Z,0.00
2023-03-11T04:08:38.989Z,0.00
2023-03-11T04:09:38.998Z,0.00
2023-03-11T04:10:38.970Z,0.00
2023-03-11T04:11:38.984Z,0.00
2023-03-11T04:12:38.958Z,0.00
2023-03-11T04:13:38.953Z,0.00
2023-03-11T04:14:38.937Z,0.00
2023-03-11T04:15:38.932Z,0.00
2023-03-11T04:16:38.987Z,0.00
2023-03-11T04:17:38.912Z,0.00
2023-03-11T04:18:38.895Z,0.00
2023-03-11T04:19:38.895Z,0.00
2023-03-11T04:20:38.880Z,0.00
2023-03-11T04:21:38.897Z,0.00
2023-03-11T04:22:38.857Z,0.00
2023-03-11T04:23:38.855Z,0.00
2023-03-11T04:24:38.839Z,0.00
2023-03-11T04:25:38.834Z,0.00
2023-03-11T04:26:38.829Z,0.00
2023-03-11T04:27:38.806Z,0.00
2023-03-11T04:28:38.801Z,0.00
2023-03-11T04:29:38.795Z,0.00
2023-03-11T04:30:38.876Z,0.00
2023-03-11T04:31:38.781Z,0.00
2023-03-11T04:32:38.775Z,0.00
2023-03-11T04:33:38.749Z,0.00
2023-03-11T04:34:38.750Z,0.00
2023-03-11T04:35:38.771Z,0.00
2023-03-11T04:36:38.749Z,0.00
2023-03-11T04:37:38.706Z,0.00
2023-03-11T04:38:38.698Z,0.00
2023-03-11T04:39:38.694Z,0.00
2023-03-11T04:40:38.680Z,0.00
2023-03-11T04:41:38.690Z,0.00
2023-03-11T04:42:38.654Z,0.00
2023-03-11T04:43:38.659Z,0.00
2023-03-11T04:44:38.634Z,0.00
2023-03-11T04:45:38.628Z,0.00
2023-03-11T04:46:38.641Z,0.00
2023-03-11T04:47:38.621Z,0.00
2023-03-11T04:48:38.596Z,0.00
2023-03-11T04:49:38.595Z,0.00
2023-03-11T04:50:38.580Z,0.00
2023-03-11T04:51:38.574Z,0.00
2023-03-11T04:52:38.566Z,0.00
2023-03-11T04:53:38.550Z,0.00
2023-03-11T04:54:38.555Z,0.00
2023-03-11T04:55:38.537Z,0.00
2023-03-11T04:56:38.516Z,0.00
2023-03-11T04:57:38.534Z,0.00
2023-03-11T04:58:38.492Z,0.00
2023-03-11T04:59:38.493Z,0.00
2023-03-11T05:00:38.482Z,0.00
2023-03-11T05:01:38.592Z,0.00
2023-03-11T05:02:38.487Z,0.00
2023-03-11T05:03:38.452Z,0.00
2023-03-11T05:04:38.454Z,0.00
2023-03-11T05:05:38.438Z,0.00
2023-03-11T05:06:38.419Z,0.00
2023-03-11T05:07:38.444Z,0.00
2023-03-11T05:08:38.401Z,0.00
2023-03-11T05:09:38.401Z,0.00
2023-03-11T05:10:38.378Z,0.00
2023-03-11T05:11:38.378Z,0.00
2023-03-11T05:12:38.424Z,0.00
2023-03-11T05:13:38.352Z,0.00
2023-03-11T05:14:38.339Z,0.00
2023-03-11T05:15:38.396Z,0.00
2023-03-11T05:16:38.336Z,0.00
2023-03-11T05:17:38.332Z,0.00
2023-03-11T05:18:38.301Z,0.00
2023-03-11T05:19:38.296Z,0.00
2023-03-11T05:20:38.229Z,1.00
2023-03-11T05:21:38.232Z,1.00
2023-03-11T05:22:38.221Z,1.00
2023-03-11T05:23:38.212Z,1.00
2023-03-11T05:24:38.191Z,2.00
2023-03-11T05:25:38.196Z,2.00
2023-03-11T05:26:38.167Z,2.00
2023-03-11T05:27:38.203Z,3.00
2023-03-11T05:28:38.152Z,2.00
2023-03-11T05:29:38.151Z,5.00
2023-03-11T05:30:38.137Z,3.00
2023-03-11T05:31:38.162Z,5.00
2023-03-11T05:32:38.189Z,5.00
2023-03-11T05:33:38.112Z,11.00
2023-03-11T05:34:38.104Z,7.00
2023-03-11T05:35:38.185Z,8.00
2023-03-11T05:36:38.071Z,13.00
2023-03-11T05:37:38.085Z,14.00
2023-03-11T05:38:38.058Z,16.00
2023-03-11T05:39:38.050Z,21.00
2023-03-11T05:40:38.041Z,21.00
2023-03-11T05:41:38.038Z,28.00
2023-03-11T05:42:38.048Z,33.00
2023-03-11T05:43:38.041Z,33.00
2023-03-11T05:44:38.001Z,40.00
2023-03-11T05:45:38.002Z,42.00
2023-03-11T05:46:38.049Z,51.00
2023-03-11T05:47:37.997Z,53.00
2023-03-11T05:48:37.962Z,58.00
2023-03-11T05:49:37.963Z,70.00
2023-03-11T05:50:37.955Z,75.00
2023-03-11T05:51:37.940Z,81.00
2023-03-11T05:52:37.943Z,87.00
2023-03-11T05:53:37.928Z,93.00
2023-03-11T05:54:37.913Z,101.00
2023-03-11T05:55:37.900Z,104.00
2023-03-11T05:56:37.888Z,115.00
2023-03-11T05:57:37.891Z,123.00
2023-03-11T05:58:37.884Z,130.00
2023-03-11T05:59:37.915Z,138.00
2023-03-11T06:00:37.866Z,150.00
2023-03-11T06:01:37.842Z,158.00
2023-03-11T06:02:37.849Z,163.00
2023-03-11T06:03:37.862Z,166.00
2023-03-11T06:04:38.023Z,182.00
2023-03-11T06:05:37.808Z,192.00
2023-03-11T06:06:37.783Z,202.00
2023-03-11T06:07:37.803Z,210.00
2023-03-11T06:08:37.784Z,219.00
2023-03-11T06:09:37.764Z,226.00
2023-03-11T06:10:37.752Z,239.00
2023-03-11T06:11:37.744Z,254.00
2023-03-11T06:12:37.738Z,270.00
2023-03-11T06:13:37.724Z,282.00
2023-03-11T06:14:37.706Z,307.00
2023-03-11T06:15:37.720Z,325.00
2023-03-11T06:16:37.714Z,332.00
2023-03-11T06:17:37.706Z,330.00
2023-03-11T06:18:37.670Z,332.00
2023-03-11T06:19:37.665Z,337.00
2023-03-11T06:20:37.648Z,346.00
2023-03-11T06:21:37.648Z,352.00
2023-03-11T06:22:40.051Z,347.00
2023-03-11T06:23:37.631Z,368.00
2023-03-11T06:24:37.607Z,367.00
2023-03-11T06:25:37.606Z,366.00
2023-03-11T06:26:37.607Z,369.00
2023-03-11T06:27:37.662Z,367.00
2023-03-11T06:28:37.573Z,374.00
2023-03-11T06:29:37.567Z,375.00
2023-03-11T06:30:37.552Z,383.00
2023-03-11T06:31:37.712Z,393.00
2023-03-11T06:32:37.650Z,406.00
2023-03-11T06:33:37.524Z,427.00
2023-03-11T06:34:37.517Z,447.00
2023-03-11T06:35:37.582Z,468.00
2023-03-11T06:36:37.498Z,484.00
2023-03-11T06:37:37.531Z,495.00
2023-03-11T06:38:37.570Z,504.00
2023-03-11T06:39:37.468Z,505.00
2023-03-11T06:40:37.449Z,510.00
2023-03-11T06:41:37.461Z,526.00
2023-03-11T06:42:37.466Z,543.00
2023-03-11T06:43:37.434Z,563.00
2023-03-11T06:44:37.410Z,576.00
2023-03-11T06:45:37.446Z,587.00
2023-03-11T06:46:37.394Z,619.00
2023-03-11T06:47:37.451Z,645.00
2023-03-11T06:48:37.370Z,672.00
2023-03-11T06:49:37.367Z,668.00
2023-03-11T06:50:37.360Z,643.00
2023-03-11T06:51:37.378Z,649.00
2023-03-11T06:52:37.352Z,659.00
2023-03-11T06:53:37.343Z,674.00
2023-03-11T06:54:37.311Z,695.00
2023-03-11T06:55:37.314Z,708.00
2023-03-11T06:56:37.296Z,726.00
2023-03-11T06:57:37.305Z,737.00
2023-03-11T06:58:37.291Z,773.00
2023-03-11T06:59:37.268Z,838.00
2023-03-11T07:00:37.271Z,794.00
2023-03-11T07:01:37.257Z,825.00
2023-03-11T07:02:37.255Z,841.00
2023-03-11T07:03:37.277Z,829.00
2023-03-11T07:04:37.218Z,835.00
2023-03-11T07:05:37.213Z,871.00
2023-03-11T07:06:37.207Z,865.00
2023-03-11T07:07:37.347Z,863.00
2023-03-11T07:08:37.184Z,852.00
2023-03-11T07:09:37.171Z,843.00
2023-03-11T07:10:37.163Z,842.00
2023-03-11T07:11:37.156Z,860.00
2023-03-11T07:12:37.167Z,838.00
2023-03-11T07:13:37.143Z,805.00
2023-03-11T07:14:37.120Z,776.00
2023-03-11T07:15:37.112Z,789.00
2023-03-11T07:16:37.096Z,799.00
2023-03-11T07:17:37.121Z,800.00
2023-03-11T07:18:37.081Z,814.00
2023-03-11T07:19:37.077Z,855.00
2023-03-11T07:20:37.070Z,850.00
2023-03-11T07:21:37.057Z,835.00
2023-03-11T07:22:37.060Z,853.00
2023-03-11T07:23:37.040Z,891.00
2023-03-11T07:24:37.028Z,939.00
2023-03-11T07:25:37.014Z,977.00
2023-03-11T07:26:37.003Z,992.00
2023-03-11T07:27:37.030Z,1010.00
2023-03-11T07:28:36.981Z,1024.00
2023-03-11T07:29:36.979Z,1015.00
2023-03-11T07:30:36.960Z,986.00
2023-03-11T07:31:37.054Z,980.00
2023-03-11T07:32:36.977Z,1005.00
2023-03-11T07:33:36.931Z,1034.00
2023-03-11T07:34:36.928Z,1046.00
2023-03-11T07:35:36.937Z,1027.00
2023-03-11T07:36:36.907Z,1020.00
2023-03-11T07:37:36.904Z,1032.00
2023-03-11T07:38:36.887Z,1066.00
2023-03-11T07:39:36.876Z,1080.00
2023-03-11T07:40:36.870Z,1087.00
2023-03-11T07:41:36.853Z,1088.00
2023-03-11T07:42:36.852Z,1102.00
2023-03-11T07:43:36.948Z,1112.00
2023-03-11T07:44:36.836Z,1124.00
2023-03-11T07:45:36.813Z,1140.00
2023-03-11T07:46:36.817Z,1154.00
2023-03-11T07:47:36.801Z,1155.00
2023-03-11T07:48:36.790Z,1175.00
2023-03-11T07:49:36.770Z,1199.00
2023-03-11T07:50:36.765Z,1246.00
2023-03-11T07:51:36.757Z,1268.00
2023-03-11T07:52:36.754Z,1290.00
2023-03-11T07:53:36.748Z,1311.00
2023-03-11T07:54:36.728Z,1361.00
2023-03-11T07:55:36.716Z,1423.00
2023-03-11T07:56:36.714Z,1502.00
2023-03-11T07:57:36.729Z,1573.00
2023-03-11T07:58:36.702Z,1622.00
2023-03-11T07:59:36.671Z,1643.00
2023-03-11T08:00:36.668Z,1704.00
2023-03-11T08:01:36.860Z,1789.00
2023-03-11T08:02:36.700Z,1893.00
2023-03-11T08:03:36.648Z,2007.00
2023-03-11T08:04:36.626Z,2095.00
2023-03-11T08:05:36.611Z,2159.00
2023-03-11T08:06:36.609Z,2221.00
2023-03-11T08:07:36.589Z,2305.00
2023-03-11T08:08:36.603Z,2358.00
2023-03-11T08:09:36.570Z,2372.00
2023-03-11T08:10:36.564Z,2366.00
2023-03-11T08:11:36.557Z,2416.00
2023-03-11T08:12:36.545Z,2433.00
2023-03-11T08:13:36.606Z,2467.00
2023-03-11T08:14:36.535Z,2448.00
2023-03-11T08:15:36.523Z,2428.00
2023-03-11T08:16:36.507Z,2484.00
2023-03-11T08:17:36.490Z,2695.00
2023-03-11T08:18:36.510Z,3042.00
2023-03-11T08:19:36.477Z,3328.00
2023-03-11T08:20:36.465Z,3490.00
2023-03-11T08:21:36.453Z,3395.00
2023-03-11T08:22:39.481Z,3156.00
2023-03-11T08:23:36.447Z,2929.00
2023-03-11T08:24:36.431Z,2826.00
2023-03-11T08:25:36.429Z,2825.00
2023-03-11T08:26:36.414Z,2863.00
2023-03-11T08:27:36.391Z,2886.00
2023-03-11T08:28:36.414Z,2908.00
2023-03-11T08:29:36.407Z,2924.00
2023-03-11T08:30:36.365Z,3000.00
2023-03-11T08:31:36.466Z,3090.00
2023-03-11T08:32:36.363Z,3148.00
2023-03-11T08:33:36.360Z,3232.00
2023-03-11T08:34:36.327Z,3223.00
2023-03-11T08:35:36.365Z,3192.00
2023-03-11T08:36:36.313Z,3351.00
2023-03-11T08:37:36.287Z,3310.00
2023-03-11T08:38:36.436Z,3330.00
2023-03-11T08:39:36.275Z,3310.00
2023-03-11T08:40:36.271Z,3358.00
2023-03-11T08:41:36.258Z,3262.00
2023-03-11T08:42:37.189Z,3219.00
2023-03-11T08:43:36.251Z,3225.00
2023-03-11T08:44:36.229Z,3156.00
2023-03-11T08:45:36.210Z,3132.00
2023-03-11T08:46:36.272Z,3163.00
2023-03-11T08:47:36.196Z,3217.00
2023-03-11T08:48:36.249Z,3225.00
2023-03-11T08:49:36.201Z,3267.00
2023-03-11T08:50:47.332Z,3302.00
2023-03-11T08:51:36.172Z,3383.00
2023-03-11T08:52:36.176Z,3496.00
2023-03-11T08:53:36.213Z,3460.00
2023-03-11T08:54:36.132Z,3390.00
2023-03-11T08:55:36.118Z,3422.00
2023-03-11T08:56:36.133Z,3588.00
2023-03-11T08:57:36.100Z,3661.00
2023-03-11T08:58:36.121Z,3832.00
2023-03-11T08:59:36.091Z,3784.00
2023-03-11T09:00:36.081Z,4043.00
2023-03-11T09:01:36.082Z,4096.00
2023-03-11T09:02:36.084Z,3991.00
2023-03-11T09:03:36.081Z,4275.00
2023-03-11T09:04:36.066Z,4582.00
2023-03-11T09:05:36.036Z,5684.00
2023-03-11T09:06:36.026Z,4955.00
2023-03-11T09:07:36.010Z,3910.00
2023-03-11T09:08:36.038Z,5091.00
2023-03-11T09:09:35.993Z,10585.00
2023-03-11T09:10:35.984Z,7898.00
2023-03-11T09:11:35.959Z,4154.00
2023-03-11T09:12:35.973Z,8600.00
2023-03-11T09:13:35.972Z,6541.00
2023-03-11T09:14:37.204Z,5640.00
2023-03-11T09:15:35.937Z,5982.00
2023-03-11T09:16:35.961Z,5014.00
2023-03-11T09:17:35.903Z,5062.00
2023-03-11T09:18:35.915Z,6878.00
2023-03-11T09:19:35.899Z,7220.00
2023-03-11T09:20:35.885Z,8802.00
2023-03-11T09:21:35.861Z,5848.00
2023-03-11T09:22:35.872Z,9390.00
2023-03-11T09:23:35.868Z,9393.00
2023-03-11T09:24:35.886Z,9367.00
2023-03-11T09:25:35.836Z,9416.00
2023-03-11T09:26:35.809Z,9479.00
2023-03-11T09:27:35.816Z,9508.00
2023-03-11T09:28:35.819Z,9620.00
2023-03-11T09:29:35.800Z,9703.00
2023-03-11T09:30:35.825Z,9716.00
2023-03-11T09:31:35.767Z,9804.00
2023-03-11T09:32:35.846Z,10010.00
2023-03-11T09:33:35.766Z,10150.00
2023-03-11T09:34:35.738Z,10210.00
2023-03-11T09:35:35.808Z,10360.00
2023-03-11T09:36:35.722Z,10554.00
2023-03-11T09:37:35.718Z,10631.00
2023-03-11T09:38:35.714Z,10710.00
2023-03-11T09:39:35.687Z,11054.00
2023-03-11T09:40:35.683Z,11008.00
2023-03-11T09:41:44.960Z,10983.00
2023-03-11T09:42:35.667Z,11425.00
2023-03-11T09:43:35.666Z,11672.00
2023-03-11T09:44:35.648Z,11853.00
2023-03-11T09:45:35.631Z,12201.00
2023-03-11T09:46:35.678Z,12844.00
2023-03-11T09:47:35.624Z,12213.00
2023-03-11T09:48:35.621Z,12443.00
2023-03-11T09:49:35.600Z,12607.00
2023-03-11T09:50:35.597Z,13110.00
2023-03-11T09:51:35.568Z,13135.00
2023-03-11T09:52:35.556Z,13349.00
2023-03-11T09:53:35.566Z,14051.00
2023-03-11T09:54:35.531Z,14027.00
2023-03-11T09:55:35.512Z,14786.00
2023-03-11T09:56:35.503Z,15500.00
2023-03-11T09:57:35.498Z,15786.00
2023-03-11T09:58:35.501Z,16180.00
2023-03-11T09:59:35.486Z,16961.00
2023-03-11T10:00:35.485Z,17695.00
2023-03-11T10:01:35.480Z,17781.00
2023-03-11T10:02:35.498Z,19066.00
2023-03-11T10:03:36.833Z,19560.00
2023-03-11T10:04:35.479Z,20255.00
2023-03-11T10:05:35.463Z,20506.00
2023-03-11T10:06:35.406Z,21847.00
2023-03-11T10:07:35.387Z,21566.00
2023-03-11T10:08:35.420Z,23465.00
2023-03-11T10:09:36.575Z,23394.00
2023-03-11T10:10:35.381Z,24346.00
2023-03-11T10:11:35.353Z,26616.00
2023-03-11T10:12:35.346Z,30114.00
2023-03-11T10:13:35.339Z,30827.00
2023-03-11T10:14:35.372Z,30378.00
2023-03-11T10:15:36.363Z,30486.00
2023-03-11T10:16:35.308Z,32740.00
2023-03-11T10:17:35.350Z,33666.00
2023-03-11T10:18:35.299Z,35717.00
2023-03-11T10:19:35.278Z,35587.00
2023-03-11T10:20:35.273Z,35561.00
2023-03-11T10:21:35.238Z,36149.00
2023-03-11T10:22:35.239Z,41191.00
2023-03-11T10:23:35.274Z,22234.00
2023-03-11T10:24:35.215Z,74479.00
2023-03-11T10:25:35.216Z,75160.00
2023-03-11T10:26:35.224Z,75555.00
2023-03-11T10:27:35.176Z,75838.00
2023-03-11T10:28:35.223Z,75982.00
2023-03-11T10:29:35.161Z,71985.00
2023-03-11T10:30:35.156Z,33359.00
2023-03-11T10:31:35.163Z,34665.00
2023-03-11T10:32:35.179Z,74367.00
2023-03-11T10:33:35.160Z,73684.00
2023-03-11T10:34:35.133Z,73215.00
2023-03-11T10:35:35.146Z,37032.00
2023-03-11T10:36:35.290Z,38951.00
2023-03-11T10:37:48.279Z,31695.00
2023-03-11T10:38:35.299Z,30872.00
2023-03-11T10:39:35.052Z,30767.00
2023-03-11T10:40:35.057Z,32174.00
2023-03-11T10:41:35.034Z,32068.00
2023-03-11T10:42:35.027Z,30715.00
2023-03-11T10:43:35.472Z,29163.00
2023-03-11T10:44:35.030Z,31815.00
2023-03-11T10:45:35.007Z,24859.00
2023-03-11T10:46:35.029Z,27285.00
2023-03-11T10:47:34.968Z,27323.00
2023-03-11T10:48:35.091Z,28135.00
2023-03-11T10:49:34.967Z,27827.00
2023-03-11T10:50:36.486Z,28572.00
2023-03-11T10:51:34.936Z,28849.00
2023-03-11T10:52:35.046Z,31851.00
2023-03-11T10:53:34.918Z,31003.00
2023-03-11T10:54:34.903Z,29607.00
2023-03-11T10:55:34.885Z,33110.00
2023-03-11T10:56:34.877Z,34182.00
2023-03-11T10:57:34.873Z,22367.00
2023-03-11T10:58:34.866Z,8775.00
2023-03-11T10:59:34.851Z,3408.00
2023-03-11T11:00:34.834Z,21541.00
2023-03-11T11:01:35.544Z,14363.00
2023-03-11T11:02:34.824Z,18335.00
2023-03-11T11:03:34.833Z,9045.00
2023-03-11T11:04:34.846Z,5205.00
2023-03-11T11:05:34.785Z,60484.00
2023-03-11T11:06:34.872Z,12660.00
2023-03-11T11:07:34.770Z,10975.00
2023-03-11T11:08:34.799Z,8816.00
2023-03-11T11:09:35.818Z,10453.00
2023-03-11T11:10:35.469Z,4134.00
2023-03-11T11:11:34.748Z,34726.00
2023-03-11T11:12:34.735Z,33842.00
2023-03-11T11:13:34.890Z,30334.00
2023-03-11T11:14:34.731Z,31753.00
2023-03-11T11:15:34.731Z,5386.00
2023-03-11T11:16:34.759Z,29300.00
2023-03-11T11:17:34.663Z,15107.00
2023-03-11T11:18:34.652Z,12963.00
2023-03-11T11:19:34.660Z,11564.00
2023-03-11T11:20:34.687Z,10244.00
2023-03-11T11:21:34.636Z,4444.00
2023-03-11T11:22:34.634Z,74387.00
2023-03-11T11:23:34.655Z,73452.00
2023-03-11T11:24:34.637Z,40241.00
2023-03-11T11:25:34.664Z,33421.00
2023-03-11T11:26:34.618Z,20831.00
2023-03-11T11:27:34.607Z,8399.00
2023-03-11T11:28:34.553Z,7959.00
2023-03-11T11:29:35.428Z,7768.00
2023-03-11T11:30:34.587Z,7805.00
2023-03-11T11:31:34.573Z,8514.00
2023-03-11T11:32:34.540Z,5331.00
2023-03-11T11:33:34.498Z,5537.00
2023-03-11T11:34:34.515Z,60598.00
2023-03-11T11:35:34.510Z,11250.00
2023-03-11T11:36:34.475Z,6062.00
2023-03-11T11:37:34.455Z,7711.00
2023-03-11T11:38:34.444Z,75754.00
2023-03-11T11:39:34.449Z,74509.00
2023-03-11T11:40:34.438Z,73872.00
2023-03-11T11:41:34.410Z,74111.00
2023-03-11T11:42:34.408Z,74107.00
2023-03-11T11:43:34.396Z,74196.00
2023-03-11T11:44:34.409Z,74208.00
2023-03-11T11:45:34.407Z,74788.00
2023-03-11T11:46:34.419Z,74790.00
2023-03-11T11:47:34.356Z,74705.00
2023-03-11T11:48:34.340Z,71748.00
2023-03-11T11:49:34.376Z,31610.00
2023-03-11T11:50:34.315Z,33702.00
2023-03-11T11:51:34.317Z,76567.00
2023-03-11T11:52:34.322Z,76118.00
2023-03-11T11:53:34.314Z,75793.00
2023-03-11T11:54:34.321Z,76224.00
2023-03-11T11:55:34.270Z,72155.00
2023-03-11T11:56:34.248Z,33469.00
2023-03-11T11:57:34.244Z,35620.00
2023-03-11T11:58:34.233Z,34094.00
2023-03-11T11:59:34.260Z,34597.00
2023-03-11T12:00:34.225Z,38254.00
2023-03-11T12:01:34.199Z,35367.00
2023-03-11T12:02:34.196Z,29737.00
2023-03-11T12:03:34.324Z,32475.00
2023-03-11T12:04:34.321Z,32029.00
2023-03-11T12:05:34.242Z,36378.00
2023-03-11T12:06:34.230Z,25673.00
2023-03-11T12:07:34.245Z,8241.00
2023-03-11T12:08:34.180Z,3714.00
2023-03-11T12:09:34.138Z,26554.00
2023-03-11T12:10:34.185Z,4737.00
2023-03-11T12:11:34.273Z,27943.00
2023-03-11T12:12:34.173Z,13029.00
2023-03-11T12:13:34.087Z,11223.00
2023-03-11T12:14:34.136Z,12984.00
2023-03-11T12:15:34.230Z,10550.00
2023-03-11T12:16:34.039Z,5085.00
2023-03-11T12:17:34.178Z,75841.00
2023-03-11T12:18:34.040Z,75170.00
2023-03-11T12:19:34.026Z,71413.00
2023-03-11T12:20:33.998Z,33212.00
2023-03-11T12:21:34.060Z,20644.00
2023-03-11T12:22:33.979Z,12632.00
2023-03-11T12:23:34.114Z,7668.00
2023-03-11T12:24:33.968Z,24210.00
2023-03-11T12:25:33.952Z,13260.00
2023-03-11T12:26:33.934Z,12969.00
2023-03-11T12:27:33.931Z,9953.00
2023-03-11T12:28:33.951Z,8468.00
2023-03-11T12:29:33.930Z,7893.00
2023-03-11T12:30:33.900Z,7499.00
2023-03-11T12:31:33.927Z,7968.00
2023-03-11T12:32:33.944Z,7963.00
2023-03-11T12:33:33.880Z,6873.00
2023-03-11T12:34:33.887Z,9150.00
2023-03-11T12:35:33.951Z,3009.00